Time;durP1;ratioP1;P1;durP2;ratioP2;P2;SDS_P1;SDS_P2;PMS_P1;PMS_P2;Temp;Humidity;BMP_temperature;BMP_pressure;BME280_temperature;BME280_humidity;BME280_pressure;Samples;Min_cycle;Max_cycle;Signal;HPM_P1;HPM_P2
2022/05/05 00:02:01;;;;;;;2.40;1.50;;;;;;;4.58;63.10;100053.44;5053877;28;20040;-61
2022/05/05 00:04:27;;;;;;;3.38;2.00;;;;;;;4.53;62.35;100050.81;5054715;28;20029;-61
2022/05/05 00:06:53;;;;;;;4.15;2.35;;;;;;;4.57;62.63;100050.00;5054196;28;20049;-62
2022/05/05 00:09:18;;;;;;;4.32;1.92;;;;;;;4.58;62.21;100056.84;5054927;28;20445;-62
2022/05/05 00:14:28;;;;;;;3.25;2.38;;;;;;;4.46;63.05;100056.72;5054437;28;20064;-61
2022/05/05 00:17:03;;;;;;;5.53;2.47;;;;;;;4.48;63.20;100067.88;5054395;28;20065;-61
2022/05/05 00:19:31;;;;;;;5.85;2.40;;;;;;;4.49;63.56;100073.00;5043177;28;20362;-61
2022/05/05 00:21:57;;;;;;;3.53;2.15;;;;;;;4.49;63.21;100062.75;5043038;28;20025;-63
2022/05/05 00:24:23;;;;;;;4.50;2.08;;;;;;;4.48;63.61;100075.56;5054301;28;20441;-62
2022/05/05 00:26:49;;;;;;;5.10;1.60;;;;;;;4.43;62.97;100077.22;5054112;28;20104;-62
2022/05/05 00:29:15;;;;;;;2.35;1.77;;;;;;;4.54;63.21;100078.19;5053973;28;20489;-62
2022/05/05 00:31:42;;;;;;;3.45;2.00;;;;;;;4.58;62.77;100082.50;5054065;28;20033;-62
2022/05/05 00:34:07;;;;;;;4.25;2.00;;;;;;;4.56;62.80;100084.19;5050357;28;20104;-62
2022/05/05 00:36:33;;;;;;;4.82;2.38;;;;;;;4.54;62.44;100080.75;5051112;28;20028;-61
2022/05/05 00:38:59;;;;;;;2.47;2.03;;;;;;;4.54;62.70;100090.16;5053487;28;20028;-61
2022/05/05 00:41:24;;;;;;;4.97;2.53;;;;;;;4.51;62.16;100090.97;5053640;28;20075;-62
2022/05/05 00:43:50;;;;;;;6.88;2.17;;;;;;;4.42;63.20;100088.34;5053242;28;20032;-62
2022/05/05 00:46:15;;;;;;;4.03;1.98;;;;;;;4.36;63.70;100083.13;5053229;28;20025;-62
2022/05/05 00:48:42;;;;;;;3.60;2.15;;;;;;;4.32;63.37;100079.69;5053190;28;20029;-61
2022/05/05 00:51:08;;;;;;;5.00;2.83;;;;;;;4.35;63.76;100099.34;5053168;28;20110;-60
2022/05/05 00:53:34;;;;;;;5.45;2.63;;;;;;;4.18;64.05;100102.59;5053256;28;20017;-60
2022/05/05 00:56:07;;;;;;;5.78;2.75;;;;;;;4.22;63.20;100114.59;5053094;28;20035;-61
2022/05/05 00:58:33;;;;;;;5.75;2.92;;;;;;;4.32;63.15;100110.44;5053504;28;20032;-61
2022/05/05 01:01:06;;;;;;;5.75;2.75;;;;;;;3.84;62.88;100040.72;5053123;28;20129;-62
2022/05/05 01:03:33;;;;;;;7.57;2.78;;;;;;;3.82;63.32;100051.78;5052851;28;20036;-62
2022/05/05 01:05:59;;;;;;;5.03;2.50;;;;;;;4.26;63.30;100110.34;5052536;28;20021;-62
2022/05/05 01:08:24;;;;;;;7.75;3.35;;;;;;;4.25;63.02;100116.34;5052928;28;20041;-62
2022/05/05 01:10:50;;;;;;;6.60;2.92;;;;;;;4.24;63.34;100119.75;5053086;28;20029;-62
2022/05/05 01:13:16;;;;;;;5.45;3.03;;;;;;;4.21;62.95;100119.72;5051462;28;20032;-62
2022/05/05 01:15:42;;;;;;;7.30;2.45;;;;;;;4.13;62.59;100115.38;5052860;28;20087;-62
2022/05/05 01:18:07;;;;;;;7.07;2.65;;;;;;;4.23;62.04;100125.72;5052754;28;20021;-62
2022/05/05 01:20:43;;;;;;;5.13;2.60;;;;;;;3.83;62.37;100063.75;5052844;28;20047;-61
2022/05/05 01:23:10;;;;;;;8.15;2.88;;;;;;;4.19;62.33;100129.97;5052925;28;20541;-61
2022/05/05 01:28:20;;;;;;;6.22;2.67;;;;;;;4.15;62.15;100141.00;5052354;28;20037;-61
2022/05/05 01:30:47;;;;;;;5.30;2.72;;;;;;;4.12;62.27;100131.59;5052579;28;20103;-61
2022/05/05 01:33:20;;;;;;;6.90;2.78;;;;;;;4.09;62.59;100143.47;5047918;28;20104;-62
2022/05/05 01:35:48;;;;;;;4.53;2.80;;;;;;;3.64;62.17;100084.00;5032390;28;20391;-61
2022/05/05 01:38:18;;;;;;;5.75;2.47;;;;;;;4.07;62.03;100161.41;5051821;28;20486;-61
2022/05/05 01:40:46;;;;;;;4.72;2.85;;;;;;;4.18;61.82;100148.72;5051942;28;20039;-62
2022/05/05 01:43:13;;;;;;;6.15;3.22;;;;;;;4.18;61.11;100147.88;5052100;28;20029;-61
2022/05/05 01:45:39;;;;;;;5.15;2.50;;;;;;;4.04;61.60;100142.59;5050992;28;20021;-60
2022/05/05 01:48:05;;;;;;;4.95;2.92;;;;;;;4.14;61.53;100152.94;5051931;28;20035;-60
2022/05/05 01:50:31;;;;;;;4.95;2.80;;;;;;;4.08;61.05;100159.72;5052458;28;20021;-61
2022/05/05 01:52:59;;;;;;;8.25;3.38;;;;;;;4.13;61.24;100161.50;5052072;28;20064;-61
2022/05/05 01:55:25;;;;;;;8.80;2.90;;;;;;;4.15;61.35;100166.66;5052202;28;20025;-60
2022/05/05 01:57:51;;;;;;;6.85;3.30;;;;;;;4.13;61.02;100168.31;5051515;28;20025;-60
2022/05/05 02:00:18;;;;;;;5.15;2.97;;;;;;;4.18;61.44;100169.25;5052004;28;20111;-61
2022/05/05 02:02:44;;;;;;;6.32;2.95;;;;;;;4.06;61.71;100181.88;5052092;28;20112;-61
2022/05/05 02:05:10;;;;;;;5.57;3.00;;;;;;;4.16;61.38;100173.47;5051557;28;20029;-61
2022/05/05 02:07:37;;;;;;;4.88;2.80;;;;;;;4.21;61.23;100184.66;5050534;28;20076;-61
2022/05/05 02:10:05;;;;;;;3.75;2.45;;;;;;;3.74;61.60;100111.44;5049942;28;20658;-61
2022/05/05 02:12:32;;;;;;;5.60;2.85;;;;;;;4.09;61.08;100185.38;5051872;28;20060;-61
2022/05/05 02:14:58;;;;;;;3.55;2.72;;;;;;;4.10;61.72;100181.09;5052020;28;20108;-61
2022/05/05 02:17:24;;;;;;;4.85;2.60;;;;;;;4.15;61.27;100193.13;5051904;28;20427;-61
2022/05/05 02:19:50;;;;;;;5.72;2.70;;;;;;;4.18;61.55;100187.19;5048347;28;20032;-62
2022/05/05 02:22:15;;;;;;;5.43;2.90;;;;;;;4.29;60.97;100197.56;5043418;28;20029;-62
2022/05/05 02:24:41;;;;;;;4.68;2.53;;;;;;;4.30;60.34;100201.84;5041521;28;20514;-62
2022/05/05 02:27:08;;;;;;;4.25;2.35;;;;;;;4.31;60.82;100204.44;5041384;28;20104;-62
2022/05/05 02:29:34;;;;;;;4.22;2.58;;;;;;;4.40;60.62;100211.38;5043230;28;20429;-60
2022/05/05 02:32:00;;;;;;;6.80;2.95;;;;;;;4.40;60.35;100203.69;5052082;28;20021;-60
2022/05/05 02:34:25;;;;;;;3.15;2.28;;;;;;;4.53;60.33;100211.53;5051798;28;20028;-61
2022/05/05 02:39:35;;;;;;;6.18;3.00;;;;;;;5.34;57.91;100221.75;5051717;28;20151;-61
2022/05/05 02:42:01;;;;;;;6.97;3.40;;;;;;;6.02;56.46;100222.28;5051574;28;20021;-61
2022/05/05 02:44:27;;;;;;;7.75;3.90;;;;;;;6.24;54.94;100224.97;5051767;28;20168;-62
2022/05/05 02:46:52;;;;;;;6.57;3.83;;;;;;;6.29;55.33;100228.44;5051287;28;20028;-61
2022/05/05 02:49:18;;;;;;;7.20;3.00;;;;;;;6.81;54.14;100228.63;5043938;28;20029;-61
2022/05/05 02:51:45;;;;;;;5.35;3.47;;;;;;;7.09;52.96;100239.84;5051364;28;20017;-61
2022/05/05 02:56:54;;;;;;;8.07;2.72;;;;;;;7.57;51.60;100246.78;5051571;28;20422;-60
2022/05/05 02:59:20;;;;;;;6.78;2.85;;;;;;;7.43;51.37;100250.19;5051804;28;20033;-60
2022/05/05 03:01:46;;;;;;;7.55;3.15;;;;;;;7.69;51.29;100246.75;5051500;28;20445;-60
2022/05/05 03:04:12;;;;;;;4.50;2.75;;;;;;;7.84;51.01;100251.03;5051432;28;20029;-60
2022/05/05 03:06:37;;;;;;;5.70;2.90;;;;;;;7.80;50.63;100251.91;5050934;28;20021;-60
2022/05/05 03:09:03;;;;;;;5.90;2.70;;;;;;;8.54;48.76;100254.34;5051505;28;20036;-59
2022/05/05 03:11:29;;;;;;;5.18;2.65;;;;;;;8.43;47.89;100253.50;5051387;28;20029;-60
2022/05/05 03:13:54;;;;;;;3.80;2.30;;;;;;;8.38;47.89;100253.50;5051391;28;20041;-59
2022/05/05 03:16:20;;;;;;;2.80;2.08;;;;;;;8.26;48.80;100259.53;5051202;28;20029;-60
2022/05/05 03:18:45;;;;;;;3.75;2.17;;;;;;;7.88;49.66;100268.22;5054845;28;20037;-60
2022/05/05 03:21:11;;;;;;;4.82;2.53;;;;;;;8.11;49.72;100262.19;5054862;28;20024;-60
2022/05/05 03:23:37;;;;;;;3.65;2.10;;;;;;;8.09;49.89;100267.34;5055019;28;20020;-60
2022/05/05 03:26:03;;;;;;;4.32;2.05;;;;;;;8.20;49.25;100263.88;5055009;28;20466;-60
2022/05/05 03:28:28;;;;;;;5.00;2.25;;;;;;;8.55;48.91;100276.72;5053147;28;20029;-60
2022/05/05 03:30:54;;;;;;;3.67;2.00;;;;;;;8.71;48.43;100277.50;5054863;28;20033;-61
2022/05/05 03:33:19;;;;;;;2.50;1.85;;;;;;;9.22;46.67;100273.78;5054728;28;20036;-59
2022/05/05 03:35:45;;;;;;;6.60;2.10;;;;;;;9.47;45.97;100277.91;5054869;28;20033;-59
2022/05/05 03:38:10;;;;;;;2.10;1.80;;;;;;;9.49;46.23;100283.06;5054705;28;20540;-59
2022/05/05 03:40:36;;;;;;;3.15;1.58;;;;;;;9.64;44.52;100282.13;5054532;28;20025;-59
2022/05/05 03:43:02;;;;;;;5.43;1.95;;;;;;;9.42;45.15;100279.69;5054444;28;20062;-60
2022/05/05 03:45:27;;;;;;;3.35;1.80;;;;;;;8.92;45.25;100248.16;5054533;28;20036;-59
2022/05/05 03:47:53;;;;;;;3.38;1.80;;;;;;;8.94;45.84;100297.22;5054400;28;20021;-59
2022/05/05 03:50:18;;;;;;;4.70;1.70;;;;;;;9.20;44.78;100298.81;5054324;28;20478;-59
2022/05/05 03:52:44;;;;;;;2.22;1.83;;;;;;;9.44;44.54;100298.63;5054287;28;20033;-61
2022/05/05 03:55:09;;;;;;;1.92;1.52;;;;;;;9.29;45.11;100301.31;5054121;28;20029;-61
2022/05/05 03:57:35;;;;;;;3.10;1.60;;;;;;;9.55;45.79;100303.75;5054392;28;20797;-60
2022/05/05 04:00:00;;;;;;;3.38;1.63;;;;;;;9.60;44.09;100311.47;5054385;28;20021;-60
2022/05/05 04:02:26;;;;;;;2.38;1.58;;;;;;;9.28;44.37;100315.13;5054240;28;20409;-61
2022/05/05 04:04:52;;;;;;;2.08;1.80;;;;;;;8.82;45.86;100313.59;5054350;28;20047;-61
2022/05/05 04:07:17;;;;;;;4.28;1.70;;;;;;;8.57;46.54;100320.59;5053652;28;20493;-61
2022/05/05 04:09:43;;;;;;;3.05;2.00;;;;;;;8.41;45.86;100315.44;5053999;28;20029;-61
2022/05/05 04:12:09;;;;;;;3.72;1.90;;;;;;;8.38;47.00;100323.19;5053617;28;20036;-61
2022/05/05 04:14:34;;;;;;;3.00;1.77;;;;;;;7.98;46.89;100323.25;5053827;28;20154;-61
2022/05/05 04:17:03;;;;;;;2.90;1.75;;;;;;;8.05;46.85;100318.94;5052665;28;20029;-61
2022/05/05 04:19:29;;;;;;;1.98;1.52;;;;;;;8.07;46.82;100337.84;5053559;28;20028;-61
2022/05/05 04:21:54;;;;;;;3.78;1.58;;;;;;;7.90;46.68;100325.81;5053757;28;20021;-61
2022/05/05 04:24:20;;;;;;;3.03;1.52;;;;;;;7.63;48.18;100318.94;5053597;28;20052;-60
2022/05/05 04:26:47;;;;;;;4.05;1.65;;;;;;;7.69;46.42;100328.38;5053148;28;20033;-60
2022/05/05 04:29:13;;;;;;;2.72;1.73;;;;;;;7.72;46.03;100339.53;5051656;28;20529;-60
2022/05/05 04:31:39;;;;;;;6.57;1.60;;;;;;;7.78;46.57;100336.13;5053457;28;20113;-61
2022/05/05 04:34:06;;;;;;;3.85;1.85;;;;;;;7.71;46.03;100348.16;5053501;28;20025;-61
2022/05/05 04:36:35;;;;;;;3.30;1.67;;;;;;;7.67;46.84;100349.00;5053500;28;20036;-61
2022/05/05 04:39:02;;;;;;;4.50;1.60;;;;;;;8.44;44.69;100345.56;5053307;28;20029;-61
2022/05/05 04:41:28;;;;;;;3.85;1.52;;;;;;;9.33;42.83;100353.00;5053503;28;20049;-61
2022/05/05 04:43:54;;;;;;;19.13;2.15;;;;;;;9.65;41.70;100348.50;5053121;28;20029;-61
2022/05/05 04:46:20;;;;;;;2.47;1.48;;;;;;;9.74;41.20;100355.34;5053268;28;20037;-62
2022/05/05 04:48:45;;;;;;;1.33;1.15;;;;;;;10.64;39.38;100351.09;5048084;28;20052;-62
2022/05/05 04:51:11;;;;;;;1.83;1.30;;;;;;;11.40;36.93;100347.53;5034318;28;20026;-62
2022/05/05 04:53:37;;;;;;;1.92;1.23;;;;;;;11.65;36.63;100352.41;5053089;28;20028;-61
2022/05/05 04:56:03;;;;;;;2.20;1.50;;;;;;;12.28;35.81;100353.16;5052535;28;20140;-62
2022/05/05 04:58:28;;;;;;;3.85;1.30;;;;;;;12.88;33.95;100352.88;5052847;28;20017;-62
2022/05/05 05:00:54;;;;;;;3.15;1.10;;;;;;;13.18;33.04;100355.72;5053426;28;20519;-60
2022/05/05 05:03:32;;;;;;;2.97;1.45;;;;;;;13.74;31.90;100359.72;5053420;28;20556;-61
2022/05/05 05:05:58;;;;;;;1.75;1.02;;;;;;;14.05;30.52;100361.56;5053909;28;20420;-61
2022/05/05 05:08:23;;;;;;;1.73;1.20;;;;;;;14.75;29.06;100358.91;5051977;28;20060;-61
2022/05/05 05:10:49;;;;;;;1.33;1.10;;;;;;;14.75;29.13;100358.03;5052685;28;20059;-61
2022/05/05 05:13:15;;;;;;;3.47;1.08;;;;;;;14.87;28.46;100368.13;5052618;28;20072;-61
2022/05/05 05:15:40;;;;;;;1.38;1.20;;;;;;;15.17;27.84;100370.75;5052751;28;20024;-60
2022/05/05 05:18:06;;;;;;;2.78;1.00;;;;;;;15.39;28.21;100365.75;5052670;28;20044;-60
2022/05/05 05:20:31;;;;;;;2.10;1.33;;;;;;;15.81;27.18;100370.56;5052470;28;20021;-59
2022/05/05 05:22:57;;;;;;;2.50;1.17;;;;;;;15.97;26.49;100370.06;5052406;28;20029;-59
2022/05/05 05:25:22;;;;;;;1.77;0.93;;;;;;;16.12;25.58;100384.38;5052360;28;21170;-59
2022/05/05 05:27:48;;;;;;;1.38;1.00;;;;;;;15.88;25.34;100392.13;5052308;28;20056;-60
2022/05/05 05:30:13;;;;;;;2.03;1.02;;;;;;;16.35;24.92;100391.47;5052810;28;20490;-59
2022/05/05 05:32:39;;;;;;;2.08;1.13;;;;;;;16.19;24.45;100388.53;5052382;28;20390;-60
2022/05/05 05:35:05;;;;;;;3.13;1.00;;;;;;;15.00;26.08;100390.34;5067756;28;20398;-59
2022/05/05 05:37:31;;;;;;;4.43;1.10;;;;;;;14.25;26.61;100401.03;5052153;28;20478;-60
2022/05/05 05:39:56;;;;;;;2.65;1.15;;;;;;;13.91;26.83;100404.44;5051726;28;20025;-59
2022/05/05 05:42:22;;;;;;;2.63;0.93;;;;;;;14.18;26.50;100411.63;5052557;28;20037;-59
2022/05/05 05:44:48;;;;;;;99.78;5.93;;;;;;;13.76;26.43;100407.41;5052373;28;20028;-59
2022/05/05 05:47:13;;;;;;;0.90;0.90;;;;;;;14.38;26.31;100408.50;5051924;28;20501;-59
2022/05/05 05:49:39;;;;;;;2.92;0.98;;;;;;;13.60;26.57;100402.53;5051654;28;20055;-59
2022/05/05 05:52:05;;;;;;;6.53;1.20;;;;;;;13.64;27.62;100412.00;5052229;28;20060;-60
2022/05/05 05:54:31;;;;;;;2.38;1.30;;;;;;;13.78;27.21;100413.41;5052162;28;20363;-59
2022/05/05 05:56:56;;;;;;;6.30;1.65;;;;;;;13.54;27.60;100414.81;5052001;28;20021;-59
2022/05/05 05:59:22;;;;;;;3.20;1.25;;;;;;;13.94;27.11;100406.97;5051975;28;20025;-59
2022/05/05 06:04:31;;;;;;;3.05;1.17;;;;;;;14.36;27.29;100408.53;5051624;28;20402;-59
2022/05/05 06:06:57;;;;;;;2.38;1.10;;;;;;;14.20;26.94;100402.88;5051719;28;20061;-59
2022/05/05 06:09:23;;;;;;;4.30;1.73;;;;;;;14.26;27.00;100405.31;5051794;28;20072;-59
2022/05/05 06:11:48;;;;;;;2.28;1.10;;;;;;;14.41;25.98;100413.63;5051406;28;20028;-61
2022/05/05 06:14:14;;;;;;;1.75;1.20;;;;;;;14.01;26.86;100412.03;5050190;28;20449;-59
2022/05/05 06:16:39;;;;;;;3.17;1.10;;;;;;;14.32;26.03;100417.34;5051501;28;20025;-59
2022/05/05 06:19:05;;;;;;;2.45;1.13;;;;;;;13.77;27.00;100424.75;5051140;28;20033;-59
2022/05/05 06:21:30;;;;;;;3.03;1.17;;;;;;;14.28;26.41;100426.13;5050873;28;20379;-59
2022/05/05 06:23:56;;;;;;;2.78;1.10;;;;;;;14.58;25.96;100416.69;5051340;28;20385;-60
2022/05/05 06:26:23;;;;;;;2.90;1.40;;;;;;;14.47;26.31;100429.13;5051244;28;20377;-60
2022/05/05 06:28:49;;;;;;;2.22;1.13;;;;;;;13.85;25.22;100429.75;5051449;28;20116;-59
2022/05/05 06:31:16;;;;;;;2.75;1.20;;;;;;;13.22;26.57;100437.16;5051801;28;20059;-59
2022/05/05 06:33:43;;;;;;;2.83;1.25;;;;;;;12.98;25.75;100433.28;5051738;28;20021;-59
2022/05/05 06:36:08;;;;;;;2.55;1.17;;;;;;;12.36;26.38;100431.78;5051537;28;20071;-59
2022/05/05 06:38:34;;;;;;;2.17;1.02;;;;;;;12.94;25.60;100427.31;5051649;28;20585;-59
2022/05/05 06:41:00;;;;;;;3.78;0.93;;;;;;;12.59;26.00;100434.84;5051697;28;20033;-59
2022/05/05 06:43:26;;;;;;;2.35;1.50;;;;;;;12.11;27.06;100434.75;5051479;28;20025;-58
2022/05/05 06:45:52;;;;;;;4.55;1.48;;;;;;;12.23;26.73;100450.16;5051315;28;20115;-59
2022/05/05 06:48:18;;;;;;;4.30;1.48;;;;;;;11.81;27.03;100447.28;5051444;28;20127;-59
2022/05/05 06:50:43;;;;;;;3.53;1.23;;;;;;;11.85;26.40;100448.97;5051968;28;20764;-60
2022/05/05 06:53:09;;;;;;;3.03;1.35;;;;;;;11.91;26.25;100448.91;5055688;28;20377;-60
2022/05/05 06:55:34;;;;;;;1.05;0.95;;;;;;;11.81;26.68;100449.88;5055229;28;20025;-58
2022/05/05 06:58:00;;;;;;;3.55;1.20;;;;;;;11.91;26.13;100441.09;5055162;28;20025;-59
2022/05/05 07:01:51;;;;;;;7.63;1.17;;;;;;;11.65;25.77;100440.63;5055270;28;20048;-59
2022/05/05 07:03:11;;;;;;;3.28;1.17;;;;;;;11.78;25.85;100449.09;5054860;28;20025;-58
2022/05/05 07:05:37;;;;;;;5.80;1.10;;;;;;;12.09;25.70;100455.56;5055190;28;20048;-59
2022/05/05 07:08:03;;;;;;;7.32;1.50;;;;;;;12.84;25.62;100450.00;5055364;28;20497;-59
2022/05/05 07:13:13;;;;;;;1.38;0.90;;;;;;;13.14;25.10;100452.91;5055207;28;20033;-59
2022/05/05 07:15:40;;;;;;;1.23;1.00;;;;;;;13.81;25.69;100453.25;5054765;28;20439;-59
2022/05/05 07:18:06;;;;;;;1.67;0.90;;;;;;;13.88;24.60;100454.00;5054701;28;20036;-59
2022/05/05 07:20:32;;;;;;;3.55;1.10;;;;;;;13.68;24.01;100454.44;5054713;28;20505;-59
2022/05/05 07:22:58;;;;;;;1.45;1.10;;;;;;;13.83;24.86;100455.00;5054697;28;20432;-58
2022/05/05 07:25:24;;;;;;;4.05;1.00;;;;;;;13.79;25.23;100448.97;5055016;28;20025;-58
2022/05/05 07:27:49;;;;;;;3.17;0.82;;;;;;;13.32;23.43;100453.44;5050814;28;20060;-58
2022/05/05 07:30:15;;;;;;;6.38;1.25;;;;;;;13.62;24.20;100462.34;5054660;28;20443;-58
2022/05/05 07:32:41;;;;;;;4.15;1.27;;;;;;;13.62;23.35;100451.94;5054973;28;20020;-59
2022/05/05 07:35:07;;;;;;;2.53;1.10;;;;;;;13.81;24.04;100445.44;5054617;28;20029;-59
2022/05/05 07:37:33;;;;;;;3.42;1.13;;;;;;;13.46;23.46;100461.84;5054771;28;20474;-59
2022/05/05 07:39:59;;;;;;;3.58;1.13;;;;;;;13.58;24.74;100458.97;5054294;28;20082;-59
2022/05/05 07:42:24;;;;;;;4.25;1.02;;;;;;;13.20;23.93;100452.78;5054189;28;20051;-59
2022/05/05 07:44:50;;;;;;;2.55;0.98;;;;;;;13.25;24.27;100448.34;5054659;28;20412;-59
2022/05/05 07:47:15;;;;;;;4.65;0.93;;;;;;;13.24;24.46;100453.56;5053051;28;20037;-58
2022/05/05 07:49:41;;;;;;;2.90;0.95;;;;;;;13.09;24.47;100405.31;5054191;28;20044;-58
2022/05/05 07:52:06;;;;;;;3.88;1.23;;;;;;;12.93;25.97;100455.03;5054210;28;20068;-58
2022/05/05 07:54:35;;;;;;;4.03;1.45;;;;;;;12.51;24.84;100454.03;5054285;28;20386;-58
2022/05/05 07:57:01;;;;;;;3.90;1.13;;;;;;;12.40;25.15;100456.84;5054254;28;20558;-58
2022/05/05 07:59:26;;;;;;;1.85;0.95;;;;;;;12.31;25.45;100456.97;5052537;28;20032;-59
2022/05/05 08:01:53;;;;;;;5.78;0.98;;;;;;;12.45;25.46;100456.75;5054014;28;20025;-59
2022/05/05 08:04:19;;;;;;;1.73;1.00;;;;;;;12.15;24.82;100451.16;5053459;28;20467;-59
2022/05/05 08:06:44;;;;;;;1.73;1.10;;;;;;;12.06;26.69;100462.56;5054338;28;20028;-58
2022/05/05 08:09:11;;;;;;;5.10;1.00;;;;;;;12.07;25.51;100454.75;5046986;28;20033;-59
2022/05/05 08:11:37;;;;;;;2.30;0.93;;;;;;;11.95;26.04;100469.66;5033903;28;20032;-59
2022/05/05 08:14:04;;;;;;;5.13;1.10;;;;;;;12.12;26.44;100457.25;5049378;28;20540;-59
2022/05/05 08:16:30;;;;;;;1.58;1.08;;;;;;;12.21;26.07;100458.84;5053894;28;20036;-59
2022/05/05 08:18:56;;;;;;;2.35;1.00;;;;;;;12.32;26.57;100450.91;5053880;28;20044;-59
2022/05/05 08:21:21;;;;;;;3.88;1.23;;;;;;;11.80;26.66;100460.28;5039561;28;20033;-58
2022/05/05 08:23:47;;;;;;;3.08;1.10;;;;;;;11.64;26.27;100465.69;5053887;28;20032;-59
2022/05/05 08:28:56;;;;;;;1.13;1.02;;;;;;;11.83;26.72;100458.53;5053397;28;20032;-59
2022/05/05 08:31:22;;;;;;;4.32;1.27;;;;;;;12.37;27.01;100462.94;5053565;28;20104;-59
2022/05/05 08:33:48;;;;;;;3.40;1.10;;;;;;;12.50;26.17;100462.72;5053830;28;20033;-59
2022/05/05 08:36:14;;;;;;;1.17;0.90;;;;;;;12.47;25.47;100453.25;5053635;28;20036;-58
2022/05/05 08:38:40;;;;;;;1.15;0.98;;;;;;;12.83;26.98;100465.63;5053400;28;20030;-59
2022/05/05 08:41:11;;;;;;;2.20;1.13;;;;;;;12.60;26.06;100480.72;5053341;28;20037;-59
2022/05/05 08:43:36;;;;;;;3.75;1.10;;;;;;;12.67;25.31;100458.09;5053544;28;20041;-59
2022/05/05 08:46:03;;;;;;;3.03;1.02;;;;;;;12.83;26.71;100435.28;5053446;28;20017;-59
2022/05/05 08:48:31;;;;;;;3.15;1.27;;;;;;;12.26;26.16;100405.13;5053042;28;20044;-59
2022/05/05 08:50:59;;;;;;;4.03;1.20;;;;;;;12.54;25.73;100459.19;5053602;28;20060;-59
2022/05/05 08:53:30;;;;;;;1.77;1.30;;;;;;;12.57;26.87;100467.81;5051394;28;20505;-59
2022/05/05 08:55:55;;;;;;;1.43;1.10;;;;;;;12.39;28.22;100460.31;5053136;28;20032;-59
2022/05/05 08:58:22;;;;;;;2.95;1.10;;;;;;;12.38;26.47;100445.59;5053040;28;20033;-60
2022/05/05 09:00:52;;;;;;;1.13;0.98;;;;;;;12.03;26.44;100395.97;5053092;28;20340;-60
2022/05/05 09:03:18;;;;;;;2.75;1.10;;;;;;;12.60;27.26;100451.31;5000748;28;20037;-59
2022/05/05 09:05:44;;;;;;;3.50;1.55;;;;;;;12.99;26.23;100455.81;5052984;28;20029;-60
2022/05/05 09:08:13;;;;;;;2.72;1.08;;;;;;;12.67;25.99;100465.03;5052262;28;20087;-59
2022/05/05 09:10:44;;;;;;;1.80;1.00;;;;;;;12.40;24.79;100407.47;5052972;28;20041;-60
2022/05/05 09:13:10;;;;;;;2.83;1.10;;;;;;;12.72;25.36;100468.41;5052444;28;20132;-60
2022/05/05 09:15:36;;;;;;;4.30;1.10;;;;;;;12.65;25.08;100466.81;5068255;28;20517;-60
2022/05/05 09:18:31;;;;;;;2.25;1.40;;;;;;;12.20;25.45;100452.81;5052674;28;20036;-59
2022/05/05 09:20:59;;;;;;;1.50;1.10;;;;;;;12.65;26.19;100456.41;5032564;28;20111;-60
2022/05/05 09:24:34;;;;;;;1.52;1.15;;;;;;;12.47;26.41;100435.06;5041901;28;20013;-59
2022/05/05 09:26:35;;;;;;;3.05;1.20;;;;;;;12.72;25.85;100465.81;5050371;28;20029;-59
2022/05/05 09:29:20;;;;;;;2.45;1.30;;;;;;;12.43;26.64;100413.47;5047671;28;20041;-59
2022/05/05 09:31:48;;;;;;;3.65;1.30;;;;;;;12.53;25.88;100455.75;5052518;28;20158;-59
2022/05/05 09:34:19;;;;;;;4.07;1.33;;;;;;;12.47;25.21;100467.97;5052351;28;20033;-59
2022/05/05 09:36:47;;;;;;;2.95;1.40;;;;;;;11.88;25.57;100466.22;5052238;28;20044;-59
2022/05/05 09:39:13;;;;;;;4.03;1.20;;;;;;;12.26;26.27;100475.22;5052569;28;20040;-59
2022/05/05 09:41:46;;;;;;;5.53;1.13;;;;;;;11.89;27.48;100468.81;5052184;28;20383;-59
2022/05/05 09:44:21;;;;;;;2.78;1.17;;;;;;;11.81;27.29;100468.06;5051855;28;20029;-59
2022/05/05 09:46:48;;;;;;;2.33;0.98;;;;;;;11.58;26.59;100455.41;5050440;28;20036;-58
2022/05/05 09:49:16;;;;;;;2.92;1.55;;;;;;;12.00;28.88;100480.81;5046718;28;20032;-58
2022/05/05 09:57:41;;;;;;;3.20;1.20;;;;;;;12.12;26.34;100462.47;5039521;28;20036;-59
2022/05/05 10:05:46;;;;;;;1.40;1.02;;;;;;;11.57;25.14;100410.44;5014320;28;20136;-59
2022/05/05 10:08:16;;;;;;;3.05;1.02;;;;;;;11.89;25.09;100474.00;5043373;28;20075;-59
2022/05/05 10:10:43;;;;;;;4.32;1.52;;;;;;;11.86;25.65;100458.47;5043695;28;20033;-59
2022/05/05 10:13:12;;;;;;;1.50;1.10;;;;;;;11.93;26.32;100451.47;5044952;28;20107;-58
2022/05/05 10:15:39;;;;;;;1.35;1.25;;;;;;;12.19;27.33;100461.47;5041196;28;20029;-61
2022/05/05 10:18:05;;;;;;;5.60;1.20;;;;;;;12.31;25.76;100454.38;5042972;28;20029;-59
2022/05/05 10:20:32;;;;;;;3.38;1.58;;;;;;;12.45;25.51;100455.00;5045387;28;20021;-59
2022/05/05 10:23:14;;;;;;;3.38;1.45;;;;;;;12.44;25.78;100453.28;5045219;28;20107;-60
2022/05/05 10:25:40;;;;;;;2.13;1.10;;;;;;;12.47;25.24;100458.44;5041895;28;20094;-59
2022/05/05 10:28:42;;;;;;;2.45;1.17;;;;;;;11.77;25.78;100465.53;5046755;28;20103;-59
2022/05/05 10:31:12;;;;;;;6.53;1.48;;;;;;;11.74;27.10;100464.69;5048021;28;20351;-59
2022/05/05 10:34:06;;;;;;;2.50;1.25;;;;;;;12.01;27.07;100461.75;5051573;28;20067;-60
2022/05/05 10:36:34;;;;;;;2.38;1.42;;;;;;;11.97;26.10;100480.84;5051618;28;20044;-59
2022/05/05 10:39:16;;;;;;;2.00;1.50;;;;;;;12.17;26.25;100463.25;5051063;28;20444;-59
2022/05/05 10:41:42;;;;;;;2.28;1.30;;;;;;;12.29;26.57;100463.94;5051552;28;20025;-60
2022/05/05 10:44:13;;;;;;;3.40;1.25;;;;;;;12.29;26.03;100456.16;5051415;28;20115;-60
2022/05/05 10:47:02;;;;;;;4.03;1.60;;;;;;;12.53;27.94;100457.50;5051221;28;20021;-59
2022/05/05 10:49:31;;;;;;;2.75;1.50;;;;;;;12.58;25.64;100451.34;5051383;28;20040;-60
2022/05/05 10:52:08;;;;;;;4.40;1.35;;;;;;;12.70;25.29;100449.41;5051421;28;20421;-60
2022/05/05 10:54:35;;;;;;;1.98;1.40;;;;;;;12.36;26.12;100448.22;5038309;28;20048;-58
2022/05/05 10:57:25;;;;;;;3.53;1.33;;;;;;;12.43;25.37;100451.59;5051642;28;20481;-58
2022/05/05 11:00:18;;;;;;;2.63;1.30;;;;;;;12.17;26.50;100441.59;5050894;28;20032;-59
2022/05/05 11:02:56;;;;;;;3.45;1.58;;;;;;;12.49;27.23;100440.22;5042343;28;20041;-59
2022/05/05 11:05:30;;;;;;;1.63;1.30;;;;;;;12.34;25.02;100444.81;5043948;28;20067;-59
2022/05/05 11:08:08;;;;;;;2.22;1.33;;;;;;;12.22;25.87;100445.00;5043204;28;20057;-60
2022/05/05 11:13:40;;;;;;;1.45;1.23;;;;;;;12.25;25.11;100450.13;5023938;28;20433;-59
2022/05/05 11:22:03;;;;;;;4.68;1.30;;;;;;;12.33;24.51;100442.25;5043470;28;20028;-58
2022/05/05 11:24:29;;;;;;;4.75;1.35;;;;;;;12.42;24.53;100455.06;5044629;28;20100;-58
2022/05/05 11:26:55;;;;;;;2.03;1.60;;;;;;;12.24;24.32;100454.47;5045158;28;20047;-59
2022/05/05 11:29:20;;;;;;;2.58;1.60;;;;;;;12.33;25.04;100443.09;5049618;28;20029;-59
2022/05/05 11:32:00;;;;;;;2.25;1.60;;;;;;;12.46;25.90;100451.53;5050566;28;20029;-59
2022/05/05 11:34:36;;;;;;;3.28;1.67;;;;;;;12.22;25.08;100399.09;5051043;28;20108;-59
2022/05/05 11:37:03;;;;;;;5.88;1.50;;;;;;;12.45;25.42;100448.97;5050446;28;20017;-58
2022/05/05 11:39:31;;;;;;;2.65;1.40;;;;;;;12.12;25.01;100465.06;5053902;28;20040;-59
2022/05/05 11:42:01;;;;;;;1.95;1.63;;;;;;;12.31;27.04;100444.84;5053358;28;20051;-58
2022/05/05 11:44:27;;;;;;;3.97;1.35;;;;;;;12.48;24.62;100443.72;5054118;28;20390;-59
2022/05/05 11:46:54;;;;;;;3.55;1.50;;;;;;;12.59;24.94;100450.44;5054231;28;20025;-59
2022/05/05 11:49:21;;;;;;;1.60;1.23;;;;;;;12.64;27.09;100444.28;5054063;28;20029;-59
2022/05/05 11:51:48;;;;;;;2.28;1.40;;;;;;;12.59;24.69;100450.44;5054288;28;20042;-58
2022/05/05 11:54:23;;;;;;;6.03;1.52;;;;;;;12.30;24.65;100455.25;5052662;28;20029;-59
2022/05/05 11:56:51;;;;;;;2.85;1.52;;;;;;;12.49;25.87;100435.88;5054036;28;20037;-58
2022/05/05 12:02:11;;;;;;;4.57;1.67;;;;;;;12.33;24.26;100398.09;5054253;28;20421;-59
2022/05/05 12:04:45;;;;;;;2.15;1.30;;;;;;;12.64;24.74;100433.91;5054130;28;20025;-59
2022/05/05 12:07:25;;;;;;;2.03;1.40;;;;;;;12.47;26.09;100382.22;5053911;28;20056;-59
2022/05/05 12:09:55;;;;;;;1.77;1.20;;;;;;;12.69;24.90;100378.34;5053894;28;20171;-58
2022/05/05 12:12:25;;;;;;;2.33;1.38;;;;;;;12.89;24.77;100418.72;5054051;28;20498;-58
2022/05/05 12:14:54;;;;;;;6.15;1.73;;;;;;;12.99;25.15;100432.41;5046868;28;20497;-58